createdAt,value
2018-06-02T00:00:07.472Z,70.50
2018-06-02T00:02:35.776Z,71.50
2018-06-02T00:05:03.347Z,70.70
2018-06-02T00:07:30.928Z,70.70
2018-06-02T00:09:59.071Z,70.70
2018-06-02T00:12:26.623Z,70.60
2018-06-02T00:14:54.921Z,70.10
2018-06-02T00:17:22.486Z,70.10
2018-06-02T00:19:50.030Z,69.90
2018-06-02T00:22:17.603Z,69.60
2018-06-02T00:24:45.194Z,69.50
2018-06-02T00:27:12.773Z,69.20
2018-06-02T00:29:40.886Z,69.30
2018-06-02T00:32:08.521Z,69.20
2018-06-02T00:34:36.861Z,69.50
2018-06-02T00:37:04.437Z,69.30
2018-06-02T00:39:31.961Z,69.40
2018-06-02T00:41:59.630Z,69.90
2018-06-02T00:44:27.342Z,70.00
2018-06-02T00:46:55.651Z,70.60
2018-06-02T00:49:23.317Z,70.60
2018-06-02T00:51:50.837Z,70.40
2018-06-02T00:54:30.098Z,70.20
2018-06-02T00:56:58.405Z,69.40
2018-06-02T00:59:26.840Z,69.40
2018-06-02T01:01:55.778Z,69.20
2018-06-02T01:04:23.783Z,69.10
2018-06-02T01:06:51.314Z,68.60
2018-06-02T01:09:18.862Z,68.40
2018-06-02T01:11:49.261Z,67.90
2018-06-02T01:14:17.543Z,67.40
2018-06-02T01:16:45.872Z,67.40
2018-06-02T01:19:13.435Z,67.40
2018-06-02T01:21:41.010Z,67.50
2018-06-02T01:24:08.637Z,67.90
2018-06-02T01:26:36.209Z,67.80
2018-06-02T01:29:03.796Z,68.30
2018-06-02T01:31:31.328Z,68.30
2018-06-02T01:33:58.898Z,68.60
2018-06-02T01:36:26.427Z,69.10
2018-06-02T01:38:53.973Z,69.00
2018-06-02T01:41:21.513Z,69.10
2018-06-02T01:43:49.834Z,69.90
2018-06-02T01:46:17.357Z,70.60
2018-06-02T01:48:45.757Z,70.10
2018-06-02T01:51:13.283Z,70.00
2018-06-02T01:53:41.580Z,70.70
2018-06-02T01:56:09.905Z,71.00
2018-06-02T01:58:37.466Z,71.00
2018-06-02T02:01:05.034Z,71.30
2018-06-02T02:03:32.645Z,71.30
2018-06-02T02:06:00.199Z,71.10
2018-06-02T02:08:27.847Z,71.20
2018-06-02T02:10:56.652Z,71.10
2018-06-02T02:13:24.174Z,71.00
2018-06-02T02:15:52.549Z,70.90
2018-06-02T02:18:20.098Z,70.70
2018-06-02T02:20:47.688Z,70.70
2018-06-02T02:23:15.296Z,70.40
2018-06-02T02:25:42.826Z,70.10
2018-06-02T02:28:11.163Z,69.40
2018-06-02T02:30:38.694Z,69.30
2018-06-02T02:33:06.860Z,69.30
2018-06-02T02:35:34.504Z,69.30
2018-06-02T02:38:02.025Z,69.40
2018-06-02T02:40:29.578Z,69.30
2018-06-02T02:42:57.164Z,69.00
2018-06-02T02:45:24.689Z,68.70
2018-06-02T02:47:53.123Z,68.20
2018-06-02T02:50:22.124Z,68.00
2018-06-02T02:52:49.729Z,67.90
2018-06-02T02:55:17.293Z,67.80
2018-06-02T02:57:44.864Z,67.60
2018-06-02T03:00:12.417Z,67.70
2018-06-02T03:02:39.981Z,67.60
2018-06-02T03:05:07.508Z,67.50
2018-06-02T03:07:35.068Z,67.00
2018-06-02T03:10:02.627Z,66.80
2018-06-02T03:12:32.969Z,66.50
2018-06-02T03:15:00.537Z,66.10
2018-06-02T03:17:28.069Z,66.20
2018-06-02T03:19:55.639Z,66.40
2018-06-02T03:22:23.220Z,67.20
2018-06-02T03:24:50.797Z,66.60
2018-06-02T03:27:18.378Z,66.50
2018-06-02T03:29:45.998Z,66.70
2018-06-02T03:32:13.589Z,67.10
2018-06-02T03:34:41.991Z,67.60
2018-06-02T03:37:10.305Z,67.50
2018-06-02T03:39:37.884Z,67.50
2018-06-02T03:42:05.437Z,67.50
2018-06-02T03:44:32.993Z,67.60
2018-06-02T03:47:00.543Z,67.50
2018-06-02T03:49:28.065Z,67.60
2018-06-02T03:51:56.429Z,67.50
2018-06-02T03:54:23.983Z,67.40
2018-06-02T03:56:52.322Z,67.20
2018-06-02T03:59:19.853Z,67.20
2018-06-02T04:01:47.378Z,67.10
2018-06-02T04:04:14.943Z,67.10
2018-06-02T04:06:42.478Z,67.00
2018-06-02T04:09:10.029Z,66.90
2018-06-02T04:11:37.558Z,67.00
2018-06-02T04:14:05.131Z,67.00
2018-06-02T04:16:32.657Z,67.10
2018-06-02T04:19:01.064Z,66.70
2018-06-02T04:21:28.631Z,66.80
2018-06-02T04:23:56.165Z,66.50
2018-06-02T04:26:24.494Z,66.70
2018-06-02T04:28:52.020Z,66.50
2018-06-02T04:31:19.578Z,66.50
2018-06-02T04:33:47.106Z,66.50
2018-06-02T04:36:15.432Z,66.20
2018-06-02T04:38:42.960Z,66.10
2018-06-02T04:41:11.313Z,65.80
2018-06-02T04:43:38.841Z,65.70
2018-06-02T04:46:06.965Z,65.60
2018-06-02T04:48:34.526Z,65.30
2018-06-02T04:51:02.816Z,65.10
2018-06-02T04:53:30.394Z,65.10
2018-06-02T04:55:57.912Z,65.00
2018-06-02T04:58:25.500Z,64.60
2018-06-02T05:00:53.050Z,64.70
2018-06-02T05:03:21.378Z,64.70
2018-06-02T05:05:48.896Z,64.60
2018-06-02T05:08:16.478Z,64.80
2018-06-02T05:10:44.038Z,64.30
2018-06-02T05:13:11.621Z,64.40
2018-06-02T05:15:39.180Z,64.20
2018-06-02T05:18:06.751Z,63.70
2018-06-02T05:20:34.293Z,63.60
2018-06-02T05:23:01.997Z,63.50
2018-06-02T05:25:30.286Z,63.40
2018-06-02T05:27:58.605Z,63.10
2018-06-02T05:30:26.845Z,63.00
2018-06-02T05:32:55.160Z,62.90
2018-06-02T05:35:22.737Z,62.60
2018-06-02T05:37:50.564Z,62.90
2018-06-02T05:40:18.997Z,62.50
2018-06-02T05:42:47.026Z,62.40
2018-06-02T05:45:14.631Z,62.60
2018-06-02T05:47:42.264Z,62.50
2018-06-02T05:50:09.845Z,62.10
2018-06-02T05:52:37.434Z,61.80
2018-06-02T05:55:05.966Z,61.70
2018-06-02T05:57:33.497Z,61.50
2018-06-02T06:00:01.095Z,61.50
2018-06-02T06:02:28.622Z,61.40
2018-06-02T06:04:56.180Z,61.20
2018-06-02T06:07:23.718Z,61.50
2018-06-02T06:09:51.272Z,61.50
2018-06-02T06:12:19.588Z,61.90
2018-06-02T06:14:47.146Z,61.90
2018-06-02T06:17:14.670Z,61.80
2018-06-02T06:19:43.019Z,62.10
2018-06-02T06:22:10.573Z,62.00
2018-06-02T06:24:38.198Z,62.00
2018-06-02T06:27:05.774Z,62.20
2018-06-02T06:29:33.300Z,62.10
2018-06-02T06:32:01.633Z,61.50
2018-06-02T06:34:29.158Z,61.50
2018-06-02T06:36:56.677Z,61.50
2018-06-02T06:39:24.241Z,61.90
2018-06-02T06:41:52.553Z,61.90
2018-06-02T06:44:20.107Z,61.90
2018-06-02T06:46:48.634Z,62.00
2018-06-02T06:49:16.161Z,62.00
2018-06-02T06:51:43.714Z,62.10
2018-06-02T06:54:11.896Z,62.10
2018-06-02T06:56:39.440Z,61.70
2018-06-02T06:59:07.036Z,61.60
2018-06-02T07:01:34.569Z,61.50
2018-06-02T07:04:02.554Z,61.40
2018-06-02T07:06:30.125Z,61.70
2018-06-02T07:08:58.572Z,61.00
2018-06-02T07:11:26.312Z,60.90
2018-06-02T07:13:53.897Z,61.00
2018-06-02T07:16:21.422Z,60.80
2018-06-02T07:18:49.013Z,60.30
2018-06-02T07:21:16.592Z,60.20
2018-06-02T07:23:44.122Z,59.70
2018-06-02T07:26:12.490Z,59.40
2018-06-02T07:28:40.839Z,59.10
2018-06-02T07:31:08.372Z,59.00
2018-06-02T07:33:35.901Z,58.60
2018-06-02T07:36:04.863Z,57.80
2018-06-02T07:38:32.377Z,57.80
2018-06-02T07:40:59.895Z,58.00
2018-06-02T07:43:27.442Z,57.80
2018-06-02T07:45:54.967Z,57.60
2018-06-02T07:48:22.528Z,57.70
2018-06-02T07:50:50.084Z,57.50
2018-06-02T07:53:17.612Z,57.70
2018-06-02T07:55:45.928Z,58.10
2018-06-02T07:58:13.490Z,58.00
2018-06-02T08:00:41.026Z,58.10
2018-06-02T08:03:08.614Z,58.40
2018-06-02T08:05:36.152Z,58.40
2018-06-02T08:08:03.696Z,58.50
2018-06-02T08:10:32.004Z,58.40
2018-06-02T08:12:59.559Z,58.50
2018-06-02T08:15:27.101Z,58.20
2018-06-02T08:17:54.661Z,59.00
2018-06-02T08:20:23.481Z,58.60
2018-06-02T08:22:51.048Z,58.50
2018-06-02T08:25:18.595Z,58.50
2018-06-02T08:27:46.149Z,58.90
2018-06-02T08:30:13.677Z,59.20
2018-06-02T08:32:42.003Z,59.20
2018-06-02T08:35:09.534Z,59.10
2018-06-02T08:37:37.973Z,59.40
2018-06-02T08:40:05.515Z,59.70
2018-06-02T08:42:33.077Z,59.60
2018-06-02T08:45:00.635Z,59.80
2018-06-02T08:47:28.969Z,60.00
2018-06-02T08:49:56.529Z,59.90
2018-06-02T08:52:24.119Z,60.00
2018-06-02T08:54:51.649Z,59.90
2018-06-02T08:57:19.966Z,60.40
2018-06-02T08:59:47.545Z,60.40
2018-06-02T09:02:15.108Z,60.40
2018-06-02T09:04:42.682Z,59.90
2018-06-02T09:07:10.203Z,60.00
2018-06-02T09:09:37.754Z,61.00
2018-06-02T09:12:05.321Z,60.70
2018-06-02T09:14:32.946Z,60.70
2018-06-02T09:17:01.505Z,60.80
2018-06-02T09:19:29.075Z,60.70
2018-06-02T09:21:57.441Z,60.00
2018-06-02T09:24:25.050Z,60.10
2018-06-02T09:26:53.302Z,60.10
2018-06-02T09:29:21.625Z,59.80
2018-06-02T09:31:49.935Z,59.80
2018-06-02T09:34:17.478Z,59.50
2018-06-02T09:36:45.022Z,59.10
2018-06-02T09:39:12.586Z,58.80
2018-06-02T09:41:40.097Z,58.20
2018-06-02T09:44:07.665Z,58.00
2018-06-02T09:46:35.202Z,57.30
2018-06-02T09:49:02.766Z,56.80
2018-06-02T09:51:30.386Z,56.90
2018-06-02T09:53:58.619Z,56.70
2018-06-02T09:56:26.148Z,56.50
2018-06-02T09:58:53.696Z,56.60
2018-06-02T10:01:21.307Z,56.10
2018-06-02T10:03:48.864Z,55.40
2018-06-02T10:06:16.397Z,55.50
2018-06-02T10:08:43.985Z,55.50
2018-06-02T10:11:11.511Z,55.40
2018-06-02T10:13:39.039Z,55.20
2018-06-02T10:16:06.606Z,55.00
2018-06-02T10:18:34.163Z,54.80
2018-06-02T10:21:01.689Z,55.00
2018-06-02T10:23:29.262Z,55.20
2018-06-02T10:25:56.804Z,55.40
2018-06-02T10:28:24.369Z,55.60
2018-06-02T10:30:51.968Z,55.30
2018-06-02T10:33:19.521Z,55.30
2018-06-02T10:35:47.168Z,55.50
2018-06-02T10:38:14.675Z,55.90
2018-06-02T10:40:42.398Z,55.90
2018-06-02T10:43:09.969Z,55.50
2018-06-02T10:45:37.526Z,56.20
2018-06-02T10:48:05.963Z,55.80
2018-06-02T10:50:34.289Z,56.60
2018-06-02T10:53:01.853Z,56.60
2018-06-02T10:55:29.364Z,57.00
2018-06-02T10:57:56.900Z,57.30
2018-06-02T11:00:24.493Z,56.70
2018-06-02T11:02:52.713Z,57.20
2018-06-02T11:05:20.270Z,57.60
2018-06-02T11:07:47.785Z,57.80
2018-06-02T11:10:16.121Z,58.00
2018-06-02T11:12:43.660Z,58.00
2018-06-02T11:15:11.670Z,57.70
2018-06-02T11:17:39.211Z,58.00
2018-06-02T11:20:06.782Z,57.90
2018-06-02T11:22:34.363Z,57.80
2018-06-02T11:25:01.893Z,58.20
2018-06-02T11:27:29.418Z,58.40
2018-06-02T11:29:56.975Z,58.20
2018-06-02T11:32:24.537Z,57.90
2018-06-02T11:34:52.146Z,58.40
2018-06-02T11:37:19.668Z,58.40
2018-06-02T11:39:47.225Z,58.80
2018-06-02T11:42:14.809Z,59.00
2018-06-02T11:44:42.407Z,59.00
2018-06-02T11:47:10.694Z,59.40
2018-06-02T11:49:38.239Z,59.40
2018-06-02T11:52:06.597Z,59.20
2018-06-02T11:54:34.125Z,59.10
2018-06-02T11:57:01.699Z,59.60
2018-06-02T11:59:29.264Z,58.50
2018-06-02T12:01:56.816Z,58.10
2018-06-02T12:04:24.334Z,57.40
2018-06-02T12:06:52.705Z,56.60
2018-06-02T12:09:20.250Z,56.60
2018-06-02T12:11:48.663Z,56.10
2018-06-02T12:14:16.241Z,56.10
2018-06-02T12:16:43.778Z,56.70
2018-06-02T12:19:11.337Z,57.10
2018-06-02T12:21:38.929Z,57.40
2018-06-02T12:24:06.488Z,57.50
2018-06-02T12:26:34.039Z,57.30
2018-06-02T12:29:05.718Z,57.60
2018-06-02T12:31:33.298Z,57.80
2018-06-02T12:34:00.833Z,57.10
2018-06-02T12:36:28.370Z,57.00
2018-06-02T12:38:55.962Z,57.20
2018-06-02T12:41:24.217Z,57.60
2018-06-02T12:43:51.739Z,58.00
2018-06-02T12:46:20.146Z,57.50
2018-06-02T12:48:47.770Z,57.50
2018-06-02T12:51:16.109Z,57.10
2018-06-02T12:53:43.678Z,57.10
2018-06-02T12:56:11.214Z,58.00
2018-06-02T12:58:38.825Z,57.90
2018-06-02T13:01:06.355Z,57.70
2018-06-02T13:03:33.906Z,57.90
2018-06-02T13:06:01.483Z,58.00
2018-06-02T13:08:29.033Z,58.10
2018-06-02T13:10:56.573Z,58.20
2018-06-02T13:13:24.142Z,58.10
2018-06-02T13:15:51.705Z,58.10
2018-06-02T13:18:19.232Z,58.30
2018-06-02T13:20:46.801Z,58.40
2018-06-02T13:23:14.370Z,58.70
2018-06-02T13:25:41.901Z,58.90
2018-06-02T13:28:10.226Z,58.90
2018-06-02T13:30:37.747Z,58.80
2018-06-02T13:33:06.092Z,59.00
2018-06-02T13:35:33.653Z,59.00
2018-06-02T13:38:01.195Z,58.90
2018-06-02T13:40:28.774Z,58.70
2018-06-02T13:42:56.371Z,58.70
2018-06-02T13:45:23.928Z,58.60
2018-06-02T13:47:51.460Z,58.70
2018-06-02T13:50:19.019Z,58.50
2018-06-02T13:52:46.579Z,58.30
2018-06-02T13:55:14.109Z,57.90
2018-06-02T13:57:41.641Z,58.50
2018-06-02T14:00:09.214Z,58.60
2018-06-02T14:02:37.607Z,58.80
2018-06-02T14:05:05.139Z,59.00
2018-06-02T14:07:32.725Z,59.20
2018-06-02T14:10:00.577Z,59.70
2018-06-02T14:12:29.847Z,60.70
2018-06-02T14:14:57.348Z,60.60
2018-06-02T14:17:24.908Z,60.50
2018-06-02T14:19:52.472Z,60.80
2018-06-02T14:22:19.998Z,60.80
2018-06-02T14:24:47.563Z,61.00
2018-06-02T14:27:15.137Z,61.10
2018-06-02T14:29:42.686Z,61.30
2018-06-02T14:32:10.204Z,61.40
2018-06-02T14:34:38.490Z,61.70
2018-06-02T14:37:06.049Z,61.70
2018-06-02T14:39:33.598Z,61.50
2018-06-02T14:42:01.165Z,60.90
2018-06-02T14:44:28.721Z,60.10
2018-06-02T14:46:56.302Z,60.30
2018-06-02T14:49:24.691Z,59.50
2018-06-02T14:51:52.227Z,59.50
2018-06-02T14:54:19.785Z,59.00
2018-06-02T14:56:47.955Z,58.40
2018-06-02T14:59:15.486Z,58.10
2018-06-02T15:01:43.017Z,57.20
2018-06-02T15:04:10.622Z,56.10
2018-06-02T15:06:38.172Z,55.20
2018-06-02T15:09:05.758Z,54.70
2018-06-02T15:11:33.312Z,54.50
2018-06-02T15:14:00.869Z,53.40
2018-06-02T15:16:28.487Z,53.20
2018-06-02T15:18:56.825Z,53.80
2018-06-02T15:21:24.354Z,54.00
2018-06-02T15:23:55.724Z,54.10
2018-06-02T15:26:23.254Z,53.60
2018-06-02T15:28:50.832Z,52.10
2018-06-02T15:31:18.410Z,49.80
2018-06-02T15:33:45.934Z,48.60
2018-06-02T15:36:13.460Z,47.00
2018-06-02T15:38:44.926Z,47.10
2018-06-02T15:41:12.441Z,46.60
2018-06-02T15:43:40.037Z,46.90
2018-06-02T15:46:07.603Z,47.50
2018-06-02T15:48:35.135Z,48.60
2018-06-02T15:51:03.504Z,50.00
2018-06-02T15:53:31.632Z,50.00
2018-06-02T15:55:59.158Z,50.10
2018-06-02T15:58:27.483Z,49.70
2018-06-02T16:00:55.009Z,49.70
2018-06-02T16:03:22.630Z,49.80
2018-06-02T16:05:50.166Z,49.80
2018-06-02T16:08:17.717Z,49.50
2018-06-02T16:10:45.252Z,49.30
2018-06-02T16:13:12.794Z,49.00
2018-06-02T16:15:41.001Z,48.60
2018-06-02T16:18:08.530Z,48.40
2018-06-02T16:20:36.856Z,47.50
2018-06-02T16:23:04.430Z,47.50
2018-06-02T16:25:31.981Z,48.20
2018-06-02T16:27:59.496Z,48.10
2018-06-02T16:30:27.057Z,47.70
2018-06-02T16:32:54.588Z,47.10
2018-06-02T16:35:22.202Z,47.60
2018-06-02T16:37:49.811Z,47.50
2018-06-02T16:40:17.418Z,47.70
2018-06-02T16:42:44.994Z,47.70
2018-06-02T16:45:12.561Z,48.70
2018-06-02T16:47:41.022Z,47.10
2018-06-02T16:50:08.597Z,47.00
2018-06-02T16:52:36.121Z,45.60
2018-06-02T16:55:03.665Z,45.30
2018-06-02T16:57:31.249Z,45.30
2018-06-02T16:59:58.791Z,46.30
2018-06-02T17:02:27.083Z,47.60
2018-06-02T17:04:54.677Z,47.60
2018-06-02T17:07:22.237Z,48.20
2018-06-02T17:09:49.827Z,48.80
2018-06-02T17:12:17.396Z,49.20
2018-06-02T17:14:44.976Z,49.50
2018-06-02T17:17:12.558Z,49.70
2018-06-02T17:19:40.125Z,49.60
2018-06-02T17:22:07.787Z,49.40
2018-06-02T17:24:35.344Z,49.50
2018-06-02T17:27:02.893Z,50.00
2018-06-02T17:29:30.425Z,50.20
2018-06-02T17:31:57.985Z,51.00
2018-06-02T17:34:26.265Z,51.70
2018-06-02T17:36:54.589Z,51.80
2018-06-02T17:39:22.839Z,51.80
2018-06-02T17:41:50.402Z,52.10
2018-06-02T17:44:17.957Z,52.10
2018-06-02T17:46:45.544Z,52.60
2018-06-02T17:49:13.077Z,52.80
2018-06-02T17:51:40.628Z,53.30
2018-06-02T17:54:09.023Z,53.60
2018-06-02T17:56:36.916Z,53.50
2018-06-02T17:59:04.489Z,53.60
2018-06-02T18:01:32.027Z,53.10
2018-06-02T18:03:59.590Z,53.40
2018-06-02T18:06:27.151Z,53.40
2018-06-02T18:08:54.720Z,53.30
2018-06-02T18:11:22.277Z,53.50
2018-06-02T18:13:49.807Z,54.30
2018-06-02T18:16:17.366Z,53.80
2018-06-02T18:18:44.926Z,53.90
2018-06-02T18:21:12.454Z,53.90
2018-06-02T18:23:40.009Z,53.60
2018-06-02T18:26:07.569Z,53.50
2018-06-02T18:28:35.123Z,53.50
2018-06-02T18:31:02.653Z,53.30
2018-06-02T18:33:30.211Z,53.00
2018-06-02T18:35:57.796Z,53.00
2018-06-02T18:38:25.326Z,52.80
2018-06-02T18:40:53.052Z,53.00
2018-06-02T18:43:21.371Z,53.20
2018-06-02T18:45:48.954Z,53.20
2018-06-02T18:48:16.754Z,54.00
2018-06-02T18:50:44.277Z,54.30
2018-06-02T18:53:11.850Z,54.60
2018-06-02T18:55:39.385Z,55.10
2018-06-02T18:58:06.913Z,55.20
2018-06-02T19:00:34.465Z,55.70
2018-06-02T19:03:02.785Z,55.90
2018-06-02T19:05:30.341Z,55.90
2018-06-02T19:07:58.680Z,56.50
2018-06-02T19:10:30.495Z,56.40
2018-06-02T19:12:58.045Z,56.60
2018-06-02T19:15:25.635Z,56.70
2018-06-02T19:17:53.196Z,56.70
2018-06-02T19:20:20.758Z,56.70
2018-06-02T19:22:48.317Z,56.70
2018-06-02T19:25:15.837Z,57.00
2018-06-02T19:27:43.360Z,57.30
2018-06-02T19:30:11.677Z,57.90
2018-06-02T19:32:42.144Z,57.80
2018-06-02T19:35:09.665Z,58.20
2018-06-02T19:37:37.217Z,58.20
2018-06-02T19:40:04.787Z,58.10
2018-06-02T19:42:32.345Z,58.80
2018-06-02T19:44:59.912Z,58.40
2018-06-02T19:47:28.285Z,58.40
2018-06-02T19:49:55.873Z,58.40
2018-06-02T19:52:23.445Z,58.50
2018-06-02T19:54:51.379Z,58.40
2018-06-02T19:57:18.892Z,58.20
2018-06-02T19:59:47.234Z,58.00
2018-06-02T20:02:14.797Z,58.00
2018-06-02T20:04:42.385Z,57.80
2018-06-02T20:07:10.708Z,57.50
2018-06-02T20:09:38.225Z,57.40
2018-06-02T20:12:06.540Z,56.90
2018-06-02T20:14:34.093Z,56.90
2018-06-02T20:17:01.638Z,56.70
2018-06-02T20:19:29.213Z,56.30
2018-06-02T20:21:56.817Z,56.10
2018-06-02T20:24:24.339Z,56.10
2018-06-02T20:26:51.910Z,55.90
2018-06-02T20:29:19.490Z,56.00
2018-06-02T20:31:47.040Z,56.70
2018-06-02T20:34:14.576Z,55.90
2018-06-02T20:36:42.121Z,56.10
2018-06-02T20:39:09.678Z,56.40
2018-06-02T20:41:38.001Z,56.00
2018-06-02T20:44:05.521Z,55.90
2018-06-02T20:46:33.091Z,55.70
2018-06-02T20:49:00.755Z,55.50
2018-06-02T20:51:28.313Z,56.00
2018-06-02T20:53:55.889Z,55.40
2018-06-02T20:56:23.419Z,55.40
2018-06-02T20:58:51.106Z,55.50
2018-06-02T21:01:18.733Z,55.40
2018-06-02T21:03:47.017Z,55.50
2018-06-02T21:06:15.326Z,55.40
2018-06-02T21:08:42.872Z,55.30
2018-06-02T21:11:10.437Z,55.40
2018-06-02T21:13:38.032Z,55.30
2018-06-02T21:16:05.544Z,55.20
2018-06-02T21:18:33.141Z,55.10
2018-06-02T21:21:00.665Z,55.00
2018-06-02T21:23:28.188Z,55.20
2018-06-02T21:25:55.740Z,55.30
2018-06-02T21:28:23.261Z,55.40
2018-06-02T21:30:50.839Z,55.60
2018-06-02T21:33:18.410Z,55.50
2018-06-02T21:35:45.979Z,55.80
2018-06-02T21:38:13.529Z,55.70
2018-06-02T21:40:41.055Z,55.80
2018-06-02T21:43:08.604Z,56.00
2018-06-02T21:45:36.174Z,56.10
2018-06-02T21:48:03.688Z,56.10
2018-06-02T21:50:31.265Z,56.10
2018-06-02T21:52:58.813Z,56.10
2018-06-02T21:55:26.360Z,56.10
2018-06-02T21:57:53.921Z,56.10
2018-06-02T22:00:21.486Z,56.10
2018-06-02T22:02:49.074Z,56.10
2018-06-02T22:05:17.379Z,56.10
2018-06-02T22:07:44.993Z,56.10
2018-06-02T22:10:12.564Z,56.00
2018-06-02T22:12:40.146Z,55.90
2018-06-02T22:15:07.818Z,55.70
2018-06-02T22:17:35.351Z,56.00
2018-06-02T22:20:03.734Z,56.10
2018-06-02T22:22:32.009Z,56.10
2018-06-02T22:25:00.965Z,56.10
2018-06-02T22:27:28.521Z,56.10
2018-06-02T22:29:56.046Z,55.90
2018-06-02T22:32:23.606Z,55.90
2018-06-02T22:34:51.133Z,55.90
2018-06-02T22:37:19.466Z,55.70
2018-06-02T22:39:46.985Z,55.70
2018-06-02T22:42:15.759Z,55.50
2018-06-02T22:44:44.052Z,55.50
2018-06-02T22:47:12.388Z,55.40
2018-06-02T22:49:39.905Z,55.40
2018-06-02T22:52:07.457Z,55.20
2018-06-02T22:54:35.037Z,55.10
2018-06-02T22:57:02.599Z,54.80
2018-06-02T22:59:30.196Z,54.70
2018-06-02T23:01:57.739Z,54.80
2018-06-02T23:04:26.051Z,54.70
2018-06-02T23:06:54.413Z,55.50
2018-06-02T23:09:21.988Z,54.90
2018-06-02T23:11:50.339Z,55.00
2018-06-02T23:14:17.870Z,54.90
2018-06-02T23:16:45.424Z,55.30
2018-06-02T23:19:12.997Z,55.20
2018-06-02T23:21:40.551Z,55.10
2018-06-02T23:24:08.080Z,54.90
2018-06-02T23:26:36.393Z,55.00
2018-06-02T23:29:03.938Z,55.00
2018-06-02T23:31:31.516Z,55.10
2018-06-02T23:33:59.081Z,55.10
2018-06-02T23:36:26.673Z,55.20
2018-06-02T23:38:54.310Z,55.20
2018-06-02T23:41:21.889Z,55.10
2018-06-02T23:43:49.485Z,55.20
2018-06-02T23:46:17.798Z,55.40
2018-06-02T23:48:45.315Z,55.30
2018-06-02T23:51:12.849Z,55.50
2018-06-02T23:53:40.453Z,55.60
2018-06-02T23:56:08.733Z,55.90
2018-06-02T23:58:37.076Z,55.90
